Time;durP1;ratioP1;P1;durP2;ratioP2;P2;SDS_P1;SDS_P2;PMS_P1;PMS_P2;Temp;Humidity;BMP_temperature;BMP_pressure;BME280_temperature;BME280_humidity;BME280_pressure;Samples;Min_cycle;Max_cycle;Signal;HPM_P1;HPM_P2
2022/08/05 00:00:13;;;;;;;;;;;21.70;99.90;;;;;;5096228;28;19985;-66
2022/08/05 00:02:39;;;;;;;;;;;21.60;99.90;;;;;;5095884;28;20289;-66
2022/08/05 00:05:05;;;;;;;;;;;21.20;99.90;;;;;;5095865;28;19987;-66
2022/08/05 00:07:30;;;;;;;;;;;20.90;99.90;;;;;;5096061;28;19912;-66
2022/08/05 00:09:55;;;;;;;;;;;20.60;99.90;;;;;;5095470;28;20286;-66
2022/08/05 00:12:21;;;;;;;;;;;20.40;99.90;;;;;;5095925;28;19912;-66
2022/08/05 00:14:46;;;;;;;;;;;20.00;99.90;;;;;;5095729;28;19918;-65
2022/08/05 00:17:12;;;;;;;;;;;19.70;99.90;;;;;;5095885;28;19914;-66
2022/08/05 00:19:37;;;;;;;;;;;19.60;99.90;;;;;;5095840;28;19915;-65
2022/08/05 00:22:03;;;;;;;;;;;19.40;99.90;;;;;;5095801;28;20305;-65
2022/08/05 00:24:29;;;;;;;;;;;19.20;99.90;;;;;;5095770;28;19908;-65
2022/08/05 00:26:54;;;;;;;;;;;19.20;99.90;;;;;;5095680;28;19908;-65
2022/08/05 00:29:20;;;;;;;;;;;19.10;99.90;;;;;;5095388;28;20370;-65
2022/08/05 00:31:45;;;;;;;;;;;19.10;99.90;;;;;;5095546;28;19915;-65
2022/08/05 00:34:11;;;;;;;;;;;19.00;99.90;;;;;;5095582;28;19913;-65
2022/08/05 00:36:36;;;;;;;;;;;19.00;99.90;;;;;;5095549;28;19939;-65
2022/08/05 00:39:02;;;;;;;;;;;18.90;99.90;;;;;;5095463;28;20259;-65
2022/08/05 00:41:28;;;;;;;;;;;18.90;99.90;;;;;;5095179;28;19915;-65
2022/08/05 00:43:54;;;;;;;;;;;18.80;99.90;;;;;;5095392;28;19908;-65
2022/08/05 00:46:19;;;;;;;;;;;18.90;99.90;;;;;;5077032;28;20278;-65
2022/08/05 00:48:45;;;;;;;;;;;19.00;99.90;;;;;;5095302;28;19908;-65
2022/08/05 00:51:10;;;;;;;;;;;19.00;99.90;;;;;;5094899;28;19919;-65
2022/08/05 00:53:36;;;;;;;;;;;19.10;99.90;;;;;;5095253;28;19915;-65
2022/08/05 00:56:01;;;;;;;;;;;18.90;99.90;;;;;;5094902;28;19951;-65
2022/08/05 00:58:27;;;;;;;;;;;18.90;99.90;;;;;;5095137;28;19947;-65
2022/08/05 01:00:52;;;;;;;;;;;18.80;99.90;;;;;;5095073;28;20269;-65
2022/08/05 01:03:18;;;;;;;;;;;18.80;99.90;;;;;;5094752;28;19908;-65
2022/08/05 01:05:43;;;;;;;;;;;18.70;99.90;;;;;;5094970;28;19908;-65
2022/08/05 01:08:09;;;;;;;;;;;18.60;99.90;;;;;;5094923;28;19912;-65
2022/08/05 01:10:39;;;;;;;;;;;18.50;99.90;;;;;;5094512;28;19926;-65
2022/08/05 01:13:06;;;;;;;;;;;18.40;99.90;;;;;;5094565;28;19930;-65
2022/08/05 01:15:34;;;;;;;;;;;18.40;99.90;;;;;;5094500;28;19923;-65
2022/08/05 01:18:01;;;;;;;;;;;18.30;99.90;;;;;;5094498;28;20286;-65
2022/08/05 01:20:39;;;;;;;;;;;18.30;99.90;;;;;;5075871;28;20362;-65
2022/08/05 01:23:20;;;;;;;;;;;18.30;99.90;;;;;;5094357;28;19908;-65
2022/08/05 01:26:05;;;;;;;;;;;18.20;99.90;;;;;;5094624;28;20370;-65
2022/08/05 01:28:37;;;;;;;;;;;18.20;99.90;;;;;;5094119;28;19919;-65
2022/08/05 01:31:08;;;;;;;;;;;18.10;99.90;;;;;;5094461;28;20010;-65
2022/08/05 01:33:37;;;;;;;;;;;18.10;99.90;;;;;;5094453;28;19915;-65
2022/08/05 01:36:07;;;;;;;;;;;18.20;99.90;;;;;;5094164;28;19908;-65
2022/08/05 01:38:34;;;;;;;;;;;18.20;99.90;;;;;;5094107;28;19916;-65
2022/08/05 01:40:59;;;;;;;;;;;18.10;99.90;;;;;;5094104;28;19912;-65
2022/08/05 01:43:26;;;;;;;;;;;18.10;99.90;;;;;;5094321;28;19957;-66
2022/08/05 01:45:52;;;;;;;;;;;18.10;99.90;;;;;;5094063;28;19908;-65
2022/08/05 01:48:18;;;;;;;;;;;18.10;99.90;;;;;;5094244;28;19958;-65
2022/08/05 01:50:45;;;;;;;;;;;18.10;99.90;;;;;;5094164;28;20378;-65
2022/08/05 01:53:12;;;;;;;;;;;18.00;99.90;;;;;;5094200;28;19908;-65
2022/08/05 01:55:39;;;;;;;;;;;18.00;99.90;;;;;;5094171;28;19954;-65
2022/08/05 01:58:05;;;;;;;;;;;18.00;99.90;;;;;;5093805;28;19908;-65
2022/08/05 02:00:32;;;;;;;;;;;18.00;99.90;;;;;;5094095;28;20362;-65
2022/08/05 02:03:00;;;;;;;;;;;18.00;99.90;;;;;;5093834;28;20373;-65
2022/08/05 02:05:29;;;;;;;;;;;18.10;99.90;;;;;;5094109;28;19961;-65
2022/08/05 02:07:55;;;;;;;;;;;18.00;99.90;;;;;;5094058;28;20006;-65
2022/08/05 02:10:20;;;;;;;;;;;18.20;99.90;;;;;;5093697;28;19920;-65
2022/08/05 02:13:06;;;;;;;;;;;18.20;99.90;;;;;;5093992;28;19958;-65
2022/08/05 02:15:34;;;;;;;;;;;18.20;99.90;;;;;;5093562;28;19997;-65
2022/08/05 02:18:03;;;;;;;;;;;18.30;99.90;;;;;;5093953;28;20305;-65
2022/08/05 02:20:30;;;;;;;;;;;18.30;99.90;;;;;;5093901;28;20405;-65
2022/08/05 02:22:59;;;;;;;;;;;18.30;99.90;;;;;;5093864;28;19908;-65
2022/08/05 02:25:26;;;;;;;;;;;18.40;99.90;;;;;;5093867;28;20247;-65
2022/08/05 02:27:54;;;;;;;;;;;18.40;99.90;;;;;;5093819;28;19908;-65
2022/08/05 02:30:21;;;;;;;;;;;18.40;99.90;;;;;;5093779;28;19909;-65
2022/08/05 02:32:48;;;;;;;;;;;18.40;99.90;;;;;;5095277;28;20354;-65
2022/08/05 02:35:15;;;;;;;;;;;18.50;99.90;;;;;;5097599;28;19909;-65
2022/08/05 02:37:42;;;;;;;;;;;18.50;99.90;;;;;;5097874;28;19926;-65
2022/08/05 02:40:09;;;;;;;;;;;18.50;99.90;;;;;;5097777;28;20374;-65
2022/08/05 02:42:35;;;;;;;;;;;18.50;99.90;;;;;;5097497;28;19908;-65
2022/08/05 02:45:01;;;;;;;;;;;18.60;99.90;;;;;;5097716;28;19916;-65
2022/08/05 02:47:28;;;;;;;;;;;18.60;99.90;;;;;;5097672;28;19914;-65
2022/08/05 02:49:54;;;;;;;;;;;18.60;99.90;;;;;;5097645;28;19923;-66
2022/08/05 02:52:19;;;;;;;;;;;18.60;99.90;;;;;;5097244;28;19916;-65
2022/08/05 02:54:46;;;;;;;;;;;18.60;99.90;;;;;;5097546;28;19943;-65
2022/08/05 02:57:13;;;;;;;;;;;18.60;99.90;;;;;;5097468;28;19908;-65
2022/08/05 02:59:41;;;;;;;;;;;18.70;99.90;;;;;;5097427;28;20402;-65
2022/08/05 03:02:08;;;;;;;;;;;18.70;99.90;;;;;;5097387;28;20363;-65
2022/08/05 03:04:34;;;;;;;;;;;18.70;99.90;;;;;;5097066;28;19908;-65
2022/08/05 03:07:00;;;;;;;;;;;18.60;99.90;;;;;;5097041;28;19908;-65
2022/08/05 03:09:25;;;;;;;;;;;18.60;99.90;;;;;;5096957;28;19931;-65
2022/08/05 03:11:51;;;;;;;;;;;18.50;99.90;;;;;;5096654;28;19927;-65
2022/08/05 03:14:16;;;;;;;;;;;18.60;99.90;;;;;;5096892;28;19909;-65
2022/08/05 03:16:42;;;;;;;;;;;18.50;99.90;;;;;;5097088;28;19908;-65
2022/08/05 03:19:07;;;;;;;;;;;18.50;99.90;;;;;;5096767;28;19908;-65
2022/08/05 03:21:33;;;;;;;;;;;18.50;99.90;;;;;;5096983;28;19912;-65
2022/08/05 03:23:59;;;;;;;;;;;18.50;99.90;;;;;;5096974;28;20324;-65
2022/08/05 03:26:24;;;;;;;;;;;18.50;99.90;;;;;;5096950;28;19908;-65
2022/08/05 03:28:50;;;;;;;;;;;18.50;99.90;;;;;;5096900;28;20415;-65
2022/08/05 03:31:15;;;;;;;;;;;18.50;99.90;;;;;;5078691;28;19917;-65
2022/08/05 03:33:41;;;;;;;;;;;18.50;99.90;;;;;;5096746;28;20019;-65
2022/08/05 03:36:07;;;;;;;;;;;18.50;99.90;;;;;;5096717;28;19913;-65
2022/08/05 03:38:32;;;;;;;;;;;18.60;99.90;;;;;;5096685;28;20019;-65
2022/08/05 03:40:58;;;;;;;;;;;18.60;99.90;;;;;;5096358;28;20346;-65
2022/08/05 03:43:24;;;;;;;;;;;18.50;99.90;;;;;;5095827;28;19960;-65
2022/08/05 03:45:51;;;;;;;;;;;18.50;99.90;;;;;;5096212;28;19923;-65
2022/08/05 03:48:17;;;;;;;;;;;18.50;99.90;;;;;;5096528;28;20353;-65
2022/08/05 03:50:52;;;;;;;;;;;18.50;99.90;;;;;;5096339;28;20370;-67
2022/08/05 03:53:21;;;;;;;;;;;18.40;99.90;;;;;;5096386;28;19950;-66
2022/08/05 03:55:52;;;;;;;;;;;18.40;99.90;;;;;;5096360;28;19912;-65
2022/08/05 03:58:21;;;;;;;;;;;18.50;99.90;;;;;;5096290;28;20286;-65
2022/08/05 04:00:48;;;;;;;;;;;18.40;99.90;;;;;;5096252;28;19908;-65
2022/08/05 04:03:14;;;;;;;;;;;18.30;99.90;;;;;;5096210;28;19939;-65
2022/08/05 04:05:41;;;;;;;;;;;18.30;99.90;;;;;;5096142;28;20263;-65
2022/08/05 04:08:08;;;;;;;;;;;18.30;99.90;;;;;;5096073;28;20279;-65
2022/08/05 04:10:33;;;;;;;;;;;18.30;99.90;;;;;;5095717;28;20455;-65
2022/08/05 04:12:59;;;;;;;;;;;18.30;99.90;;;;;;5078001;28;19908;-65
2022/08/05 04:15:36;;;;;;;;;;;18.30;99.90;;;;;;5095938;28;19912;-65
2022/08/05 04:18:03;;;;;;;;;;;18.30;99.90;;;;;;5095615;28;19908;-65
2022/08/05 04:20:28;;;;;;;;;;;18.30;99.90;;;;;;5095855;28;19946;-65
2022/08/05 04:22:54;;;;;;;;;;;18.30;99.90;;;;;;5095874;28;20309;-65
2022/08/05 04:25:19;;;;;;;;;;;18.30;99.90;;;;;;5077768;28;19908;-65
2022/08/05 04:27:45;;;;;;;;;;;18.20;99.90;;;;;;5095443;28;20019;-65
2022/08/05 04:30:10;;;;;;;;;;;18.20;99.90;;;;;;5095728;28;19935;-65
2022/08/05 04:32:36;;;;;;;;;;;18.20;99.90;;;;;;5095615;28;19937;-65
2022/08/05 04:35:01;;;;;;;;;;;18.20;99.90;;;;;;5095297;28;19915;-65
2022/08/05 04:37:27;;;;;;;;;;;18.10;99.90;;;;;;5095529;28;19908;-65
2022/08/05 04:39:52;;;;;;;;;;;18.10;99.90;;;;;;5095457;28;19908;-65
2022/08/05 04:42:18;;;;;;;;;;;18.10;99.90;;;;;;5095261;28;19948;-65
2022/08/05 04:44:43;;;;;;;;;;;18.10;99.90;;;;;;5095348;28;19908;-65
2022/08/05 04:47:08;;;;;;;;;;;18.10;99.90;;;;;;5095363;28;19946;-65
2022/08/05 04:49:34;;;;;;;;;;;18.00;99.90;;;;;;5094965;28;19962;-65
2022/08/05 04:51:59;;;;;;;;;;;18.00;99.90;;;;;;5095197;28;20092;-65
2022/08/05 04:54:26;;;;;;;;;;;18.00;99.90;;;;;;5094536;28;19923;-65
2022/08/05 04:56:53;;;;;;;;;;;18.00;99.90;;;;;;5094727;28;20364;-65
2022/08/05 04:59:19;;;;;;;;;;;18.00;99.90;;;;;;5060143;28;19998;-65
2022/08/05 05:01:44;;;;;;;;;;;17.90;99.90;;;;;;5095005;28;19915;-65
2022/08/05 05:04:10;;;;;;;;;;;18.00;99.90;;;;;;5094746;28;19912;-65
2022/08/05 05:06:36;;;;;;;;;;;18.00;99.90;;;;;;5094972;28;19908;-65
2022/08/05 05:09:01;;;;;;;;;;;18.10;99.90;;;;;;5094690;28;19912;-65
2022/08/05 05:11:27;;;;;;;;;;;18.20;99.90;;;;;;5094421;28;19927;-66
2022/08/05 05:13:52;;;;;;;;;;;18.30;99.90;;;;;;5094847;28;19958;-65
2022/08/05 05:16:18;;;;;;;;;;;18.20;99.90;;;;;;5094831;28;19908;-65
2022/08/05 05:18:43;;;;;;;;;;;18.20;99.90;;;;;;5094412;28;20407;-65
2022/08/05 05:21:09;;;;;;;;;;;18.20;99.90;;;;;;5094485;28;19931;-65
2022/08/05 05:23:34;;;;;;;;;;;18.20;99.90;;;;;;5094667;28;19938;-65
2022/08/05 05:26:00;;;;;;;;;;;18.20;99.90;;;;;;5094660;28;20485;-65
2022/08/05 05:28:25;;;;;;;;;;;18.20;99.90;;;;;;5094585;28;19909;-65
2022/08/05 05:30:51;;;;;;;;;;;18.20;99.90;;;;;;5094499;28;19916;-65
2022/08/05 05:33:16;;;;;;;;;;;18.10;99.90;;;;;;5094528;28;20439;-65
2022/08/05 05:35:44;;;;;;;;;;;18.20;99.90;;;;;;5094448;28;20000;-65
2022/08/05 05:38:09;;;;;;;;;;;18.20;99.90;;;;;;5094192;28;19915;-65
2022/08/05 05:40:35;;;;;;;;;;;18.20;99.90;;;;;;5094067;28;19908;-65
2022/08/05 05:43:00;;;;;;;;;;;18.20;99.90;;;;;;5094081;28;19946;-65
2022/08/05 05:45:26;;;;;;;;;;;18.20;99.90;;;;;;5094280;28;19908;-65
2022/08/05 05:47:52;;;;;;;;;;;18.20;99.90;;;;;;5094179;28;20369;-65
2022/08/05 05:50:17;;;;;;;;;;;18.20;99.90;;;;;;5093928;28;19908;-65
2022/08/05 05:52:43;;;;;;;;;;;18.20;99.90;;;;;;5094199;28;19908;-65
2022/08/05 05:55:09;;;;;;;;;;;18.20;99.90;;;;;;5093929;28;19908;-66
2022/08/05 05:57:36;;;;;;;;;;;18.10;99.90;;;;;;5093808;28;19908;-65
2022/08/05 06:00:03;;;;;;;;;;;18.10;99.90;;;;;;5094144;28;20350;-65
2022/08/05 06:02:28;;;;;;;;;;;18.10;99.90;;;;;;5093980;28;19940;-65
2022/08/05 06:04:53;;;;;;;;;;;18.10;99.90;;;;;;5093608;28;20290;-65
2022/08/05 06:07:19;;;;;;;;;;;18.20;99.90;;;;;;5093315;28;19908;-65
2022/08/05 06:09:44;;;;;;;;;;;18.30;99.90;;;;;;5093846;28;19991;-65
2022/08/05 06:12:10;;;;;;;;;;;18.30;99.90;;;;;;5093272;28;19924;-65
2022/08/05 06:14:35;;;;;;;;;;;18.40;99.90;;;;;;5093583;28;19912;-65
2022/08/05 06:17:01;;;;;;;;;;;18.40;99.90;;;;;;5093838;28;20038;-66
2022/08/05 06:19:27;;;;;;;;;;;18.40;99.90;;;;;;5093872;28;19945;-66
2022/08/05 06:21:52;;;;;;;;;;;18.40;99.90;;;;;;5093776;28;20355;-65
2022/08/05 06:24:18;;;;;;;;;;;18.40;99.90;;;;;;5093789;28;19908;-66
2022/08/05 06:26:44;;;;;;;;;;;18.40;99.90;;;;;;5093647;28;19957;-66
2022/08/05 06:29:09;;;;;;;;;;;18.40;99.90;;;;;;5093742;28;20316;-66
2022/08/05 06:31:35;;;;;;;;;;;18.40;99.90;;;;;;5093375;28;19912;-66
2022/08/05 06:34:01;;;;;;;;;;;18.50;99.90;;;;;;5093266;28;19912;-65
2022/08/05 06:36:27;;;;;;;;;;;18.50;99.90;;;;;;5093604;28;20358;-66
2022/08/05 06:38:53;;;;;;;;;;;18.60;99.90;;;;;;5093361;28;19943;-65
2022/08/05 06:41:19;;;;;;;;;;;18.50;99.90;;;;;;5093653;28;19908;-65
2022/08/05 06:43:45;;;;;;;;;;;18.50;99.90;;;;;;5093645;28;19908;-65
2022/08/05 06:46:10;;;;;;;;;;;18.50;99.90;;;;;;5093320;28;20012;-65
2022/08/05 06:48:36;;;;;;;;;;;18.50;99.90;;;;;;5093540;28;19947;-65
2022/08/05 06:51:02;;;;;;;;;;;18.60;99.90;;;;;;5093469;28;20333;-65
2022/08/05 06:53:27;;;;;;;;;;;18.50;99.90;;;;;;5093543;28;19908;-65
2022/08/05 06:55:53;;;;;;;;;;;18.50;99.90;;;;;;5093463;28;19997;-65
2022/08/05 06:58:18;;;;;;;;;;;18.50;99.90;;;;;;5093167;28;20057;-65
2022/08/05 07:00:44;;;;;;;;;;;18.60;99.90;;;;;;5093501;28;19915;-65
2022/08/05 07:03:09;;;;;;;;;;;18.60;99.90;;;;;;5093120;28;20447;-65
2022/08/05 07:05:35;;;;;;;;;;;18.60;99.90;;;;;;5074941;28;19908;-65
2022/08/05 07:08:00;;;;;;;;;;;18.50;99.90;;;;;;5093030;28;20007;-66
2022/08/05 07:10:26;;;;;;;;;;;18.50;99.90;;;;;;5092535;28;20019;-65
2022/08/05 07:18:23;;;;;;;;;;;18.50;99.90;;;;;;5093653;28;19909;-65
2022/08/05 07:20:48;;;;;;;;;;;18.40;99.90;;;;;;5096967;28;19930;-65
2022/08/05 07:23:14;;;;;;;;;;;18.30;99.90;;;;;;5096619;28;19908;-66
2022/08/05 07:25:39;;;;;;;;;;;18.30;99.90;;;;;;5096557;28;19957;-65
2022/08/05 07:28:05;;;;;;;;;;;18.20;99.90;;;;;;5096801;28;19908;-65
2022/08/05 07:30:31;;;;;;;;;;;18.10;99.90;;;;;;5096606;28;19912;-65
2022/08/05 07:32:57;;;;;;;;;;;18.20;99.90;;;;;;5096356;28;19908;-65
2022/08/05 07:35:22;;;;;;;;;;;18.00;99.90;;;;;;5096589;28;20042;-65
2022/08/05 07:37:48;;;;;;;;;;;17.90;99.90;;;;;;5096705;28;19908;-65
2022/08/05 07:40:13;;;;;;;;;;;18.00;99.90;;;;;;5096207;28;19908;-65
2022/08/05 07:42:39;;;;;;;;;;;18.00;99.90;;;;;;5096220;28;20378;-66
2022/08/05 07:45:04;;;;;;;;;;;18.00;99.90;;;;;;5096419;28;19912;-65
2022/08/05 07:47:30;;;;;;;;;;;17.90;99.90;;;;;;5096426;28;19998;-65
2022/08/05 07:49:55;;;;;;;;;;;17.80;99.90;;;;;;5096138;28;19908;-65
2022/08/05 07:52:21;;;;;;;;;;;17.70;99.90;;;;;;5095926;28;20461;-65
2022/08/05 07:54:46;;;;;;;;;;;17.70;99.90;;;;;;5096188;28;19954;-65
2022/08/05 07:57:12;;;;;;;;;;;17.60;99.90;;;;;;5095907;28;19940;-65
2022/08/05 07:59:37;;;;;;;;;;;17.60;99.90;;;;;;5096276;28;20362;-65
2022/08/05 08:02:03;;;;;;;;;;;17.60;99.90;;;;;;5095959;28;19915;-65
2022/08/05 08:04:29;;;;;;;;;;;17.70;99.90;;;;;;5096145;28;19915;-65
2022/08/05 08:06:54;;;;;;;;;;;17.80;99.90;;;;;;5096089;28;20293;-66
2022/08/05 08:09:20;;;;;;;;;;;17.70;99.90;;;;;;5095943;28;19909;-65
2022/08/05 08:11:46;;;;;;;;;;;17.80;99.90;;;;;;5095363;28;19978;-66
2022/08/05 08:14:11;;;;;;;;;;;17.90;99.90;;;;;;5095763;28;19942;-65
2022/08/05 08:16:37;;;;;;;;;;;17.90;99.90;;;;;;5095786;28;20007;-65
2022/08/05 08:19:02;;;;;;;;;;;17.90;99.90;;;;;;5095358;28;19914;-65
2022/08/05 08:21:28;;;;;;;;;;;17.90;99.90;;;;;;5095674;28;19908;-66
2022/08/05 08:23:53;;;;;;;;;;;17.90;99.90;;;;;;5095595;28;20441;-66
2022/08/05 08:26:19;;;;;;;;;;;17.90;99.90;;;;;;5095419;28;19916;-66
2022/08/05 08:28:44;;;;;;;;;;;17.90;99.90;;;;;;5095267;28;20305;-65
2022/08/05 08:31:10;;;;;;;;;;;17.90;99.90;;;;;;5095182;28;19970;-66
2022/08/05 08:33:36;;;;;;;;;;;17.90;99.90;;;;;;5095450;28;19914;-70
2022/08/05 08:36:01;;;;;;;;;;;17.90;99.90;;;;;;5095556;28;19908;-65
2022/08/05 08:38:27;;;;;;;;;;;17.80;99.90;;;;;;5095491;28;19909;-65
2022/08/05 08:40:52;;;;;;;;;;;17.90;99.90;;;;;;5095455;28;20356;-65
2022/08/05 08:43:18;;;;;;;;;;;17.80;99.90;;;;;;5095484;28;19915;-65
2022/08/05 08:45:44;;;;;;;;;;;17.90;99.90;;;;;;5095388;28;20290;-65
2022/08/05 08:48:11;;;;;;;;;;;18.00;99.90;;;;;;5095323;28;19934;-65
2022/08/05 08:50:39;;;;;;;;;;;17.90;99.90;;;;;;5095128;28;20398;-65
2022/08/05 08:53:05;;;;;;;;;;;17.90;99.90;;;;;;5095117;28;19998;-65
2022/08/05 08:55:33;;;;;;;;;;;17.90;99.90;;;;;;5095101;28;19912;-65
2022/08/05 08:57:59;;;;;;;;;;;17.90;99.90;;;;;;5095090;28;19957;-65
2022/08/05 09:00:25;;;;;;;;;;;17.90;99.90;;;;;;5094779;28;20386;-65
2022/08/05 09:02:51;;;;;;;;;;;17.90;99.90;;;;;;5094998;28;19912;-65
2022/08/05 09:05:17;;;;;;;;;;;17.90;99.90;;;;;;5094600;28;19908;-65
2022/08/05 09:07:42;;;;;;;;;;;17.90;99.90;;;;;;5094822;28;20351;-66
2022/08/05 09:10:08;;;;;;;;;;;17.90;99.90;;;;;;5094618;28;20433;-66
2022/08/05 09:12:34;;;;;;;;;;;17.90;99.90;;;;;;5076221;28;19912;-66
2022/08/05 09:15:04;;;;;;;;;;;18.00;99.90;;;;;;5094735;28;20278;-66
2022/08/05 09:17:29;;;;;;;;;;;18.00;99.90;;;;;;5076339;28;19908;-66
2022/08/05 09:19:55;;;;;;;;;;;18.00;99.90;;;;;;5094621;28;19908;-67
2022/08/05 09:22:20;;;;;;;;;;;18.00;99.90;;;;;;5094477;28;19934;-66
2022/08/05 09:24:56;;;;;;;;;;;18.00;99.90;;;;;;5076152;28;19908;-66
2022/08/05 09:27:29;;;;;;;;;;;18.00;99.90;;;;;;5094206;28;19919;-66
2022/08/05 09:29:54;;;;;;;;;;;18.00;99.90;;;;;;5094256;28;19908;-66
2022/08/05 09:32:32;;;;;;;;;;;18.10;99.90;;;;;;5076388;28;19916;-66
2022/08/05 09:34:59;;;;;;;;;;;18.20;99.90;;;;;;5094350;28;19991;-66
2022/08/05 09:37:25;;;;;;;;;;;18.20;99.90;;;;;;5094104;28;20374;-66
2022/08/05 09:39:51;;;;;;;;;;;18.10;99.90;;;;;;5075884;28;19937;-66
2022/08/05 09:42:18;;;;;;;;;;;18.10;99.90;;;;;;5093527;28;19908;-66
2022/08/05 09:44:46;;;;;;;;;;;18.10;99.90;;;;;;5094194;28;19915;-66
2022/08/05 09:47:15;;;;;;;;;;;18.00;99.90;;;;;;5093948;28;19913;-66
2022/08/05 09:49:41;;;;;;;;;;;18.00;99.90;;;;;;5093988;28;19908;-67
2022/08/05 09:52:27;;;;;;;;;;;18.10;99.90;;;;;;5075756;28;19916;-66
2022/08/05 09:54:54;;;;;;;;;;;18.10;99.90;;;;;;5093786;28;19908;-66
2022/08/05 09:57:28;;;;;;;;;;;18.10;99.90;;;;;;5093817;28;19908;-66
2022/08/05 09:59:56;;;;;;;;;;;18.10;99.90;;;;;;5093823;28;19956;-68
2022/08/05 10:02:38;;;;;;;;;;;18.20;99.90;;;;;;5093856;28;19927;-66
2022/08/05 10:05:05;;;;;;;;;;;18.20;99.90;;;;;;5094002;28;19923;-66
2022/08/05 10:07:47;;;;;;;;;;;18.10;99.90;;;;;;5094017;28;20370;-68
2022/08/05 10:10:13;;;;;;;;;;;18.00;99.90;;;;;;5093469;28;19908;-66
2022/08/05 10:12:39;;;;;;;;;;;18.10;99.90;;;;;;5093901;28;20281;-68
2022/08/05 10:15:12;;;;;;;;;;;18.10;99.90;;;;;;5093888;28;19915;-67
2022/08/05 10:17:37;;;;;;;;;;;18.10;99.90;;;;;;5093925;28;20334;-66
2022/08/05 10:20:03;;;;;;;;;;;18.20;99.90;;;;;;5093489;28;19947;-66
2022/08/05 10:22:29;;;;;;;;;;;18.30;99.90;;;;;;5093617;28;19962;-67
2022/08/05 10:24:55;;;;;;;;;;;18.50;99.90;;;;;;5093528;28;19941;-67
2022/08/05 10:27:20;;;;;;;;;;;18.80;99.90;;;;;;5093509;28;19912;-67
2022/08/05 10:29:46;;;;;;;;;;;18.70;99.90;;;;;;5075378;28;19908;-67
2022/08/05 10:32:12;;;;;;;;;;;18.60;99.90;;;;;;5093343;28;19912;-67
2022/08/05 10:34:38;;;;;;;;;;;18.70;99.90;;;;;;5093770;28;19915;-66
2022/08/05 10:37:04;;;;;;;;;;;18.70;99.90;;;;;;5093735;28;20389;-67
2022/08/05 10:39:32;;;;;;;;;;;18.50;99.90;;;;;;5093698;28;19908;-66
2022/08/05 10:42:06;;;;;;;;;;;18.50;99.90;;;;;;5093642;28;19909;-66
2022/08/05 10:44:32;;;;;;;;;;;18.50;99.90;;;;;;5075245;28;19908;-67
2022/08/05 10:46:57;;;;;;;;;;;18.40;99.90;;;;;;5093598;28;19915;-66
2022/08/05 10:49:24;;;;;;;;;;;18.40;99.90;;;;;;5093615;28;20436;-66
2022/08/05 10:51:59;;;;;;;;;;;18.40;99.90;;;;;;5093490;28;19967;-66
2022/08/05 10:54:44;;;;;;;;;;;18.40;99.90;;;;;;5077950;28;19958;-66
2022/08/05 10:57:11;;;;;;;;;;;18.50;99.90;;;;;;5097137;28;19992;-66
2022/08/05 10:59:37;;;;;;;;;;;18.70;99.90;;;;;;5097455;28;20410;-66
2022/08/05 11:02:11;;;;;;;;;;;18.70;99.90;;;;;;5078766;28;19958;-66
2022/08/05 11:04:44;;;;;;;;;;;18.80;99.90;;;;;;5097059;28;20368;-66
2022/08/05 11:07:14;;;;;;;;;;;18.80;99.90;;;;;;5097047;28;20002;-66
2022/08/05 11:09:44;;;;;;;;;;;18.80;99.90;;;;;;5097253;28;19908;-66
2022/08/05 11:15:04;;;;;;;;;;;18.80;99.90;;;;;;5091275;27;20268;-67
2022/08/05 11:17:31;;;;;;;;;;;18.80;99.90;;;;;;5091292;28;20015;-66
2022/08/05 11:19:58;;;;;;;;;;;18.80;99.90;;;;;;5091353;28;19916;-67
2022/08/05 11:22:45;;;;;;;;;;;18.80;99.90;;;;;;5091343;28;20003;-67
2022/08/05 11:25:30;;;;;;;;;;;18.70;99.90;;;;;;5090801;28;20379;-67
2022/08/05 11:28:16;;;;;;;;;;;18.90;99.90;;;;;;5090904;28;19909;-67
2022/08/05 11:33:36;;;;;;;;;;;19.40;99.90;;;;;;5070889;28;19913;-70
2022/08/05 11:36:06;;;;;;;;;;;19.50;99.90;;;;;;5070886;28;19912;-69
2022/08/05 11:38:51;;;;;;;;;;;19.50;99.90;;;;;;5070718;28;20026;-70
2022/08/05 11:41:21;;;;;;;;;;;19.50;99.90;;;;;;5070723;28;19909;-69
2022/08/05 11:44:05;;;;;;;;;;;19.50;99.90;;;;;;5103353;28;19919;-69
2022/08/05 11:46:31;;;;;;;;;;;19.60;99.90;;;;;;5070719;28;20264;-69
2022/08/05 11:48:57;;;;;;;;;;;19.70;99.90;;;;;;5069299;28;19912;-69
2022/08/05 11:51:24;;;;;;;;;;;19.50;99.90;;;;;;5103284;28;20379;-69
2022/08/05 11:53:49;;;;;;;;;;;19.50;99.90;;;;;;5070615;28;19908;-69
2022/08/05 11:56:15;;;;;;;;;;;19.60;99.90;;;;;;5070552;28;19908;-69
2022/08/05 11:58:41;;;;;;;;;;;19.60;99.90;;;;;;5070470;28;20007;-69
2022/08/05 12:01:09;;;;;;;;;;;19.70;99.90;;;;;;5070470;28;19993;-69
2022/08/05 12:03:43;;;;;;;;;;;19.80;99.90;;;;;;5085900;28;20011;-69
2022/08/05 12:06:08;;;;;;;;;;;19.70;99.90;;;;;;5085931;28;19909;-69
2022/08/05 12:08:42;;;;;;;;;;;20.00;99.90;;;;;;5069068;28;19916;-70
2022/08/05 12:11:08;;;;;;;;;;;20.40;99.90;;;;;;5068831;28;19908;-69
2022/08/05 12:13:36;;;;;;;;;;;20.30;99.90;;;;;;5102654;28;20054;-69
2022/08/05 12:16:02;;;;;;;;;;;20.50;99.90;;;;;;5102895;28;19915;-70
2022/08/05 12:18:32;;;;;;;;;;;20.90;99.90;;;;;;5070018;28;19990;-70
2022/08/05 12:21:08;;;;;;;;;;;21.20;99.90;;;;;;5069893;28;19995;-69
2022/08/05 12:23:33;;;;;;;;;;;21.60;99.90;;;;;;5102522;28;20279;-70
2022/08/05 12:25:59;;;;;;;;;;;22.40;99.90;;;;;;5069896;28;19910;-71
2022/08/05 12:28:39;;;;;;;;;;;22.30;99.90;;;;;;5068501;28;20275;-70
2022/08/05 12:31:05;;;;;;;;;;;22.40;99.90;;;;;;5068478;28;20329;-69
2022/08/05 12:33:32;;;;;;;;;;;22.80;99.90;;;;;;5089709;28;20007;-71
2022/08/05 12:35:57;;;;;;;;;;;22.70;99.90;;;;;;5089920;28;19917;-70
2022/08/05 12:38:24;;;;;;;;;;;22.70;99.90;;;;;;5071770;28;20044;-70
2022/08/05 12:40:49;;;;;;;;;;;22.70;99.90;;;;;;5071675;28;19915;-69
2022/08/05 12:43:15;;;;;;;;;;;22.70;99.90;;;;;;5085733;28;20399;-72
2022/08/05 12:45:55;;;;;;;;;;;22.50;99.90;;;;;;5058338;28;19909;-69
2022/08/05 12:48:21;;;;;;;;;;;22.60;99.90;;;;;;5076064;28;20371;-69
2022/08/05 12:51:07;;;;;;;;;;;22.30;99.90;;;;;;5058238;28;19931;-70
2022/08/05 12:53:32;;;;;;;;;;;22.50;99.90;;;;;;5076007;28;19967;-69
2022/08/05 12:55:58;;;;;;;;;;;22.30;99.90;;;;;;5076108;28;19955;-70
2022/08/05 12:58:23;;;;;;;;;;;22.50;99.90;;;;;;5076063;28;19916;-69
2022/08/05 13:00:50;;;;;;;;;;;22.40;99.90;;;;;;5076011;28;20367;-69
2022/08/05 13:03:15;;;;;;;;;;;22.50;99.90;;;;;;5075989;28;19916;-70
2022/08/05 13:05:41;;;;;;;;;;;22.60;99.90;;;;;;5075950;28;20306;-69
2022/08/05 13:08:06;;;;;;;;;;;22.70;99.90;;;;;;5075829;28;20290;-69
2022/08/05 13:10:40;;;;;;;;;;;22.90;99.90;;;;;;5058040;28;19958;-69
2022/08/05 13:13:06;;;;;;;;;;;22.90;99.90;;;;;;5075677;28;19916;-70
2022/08/05 13:15:31;;;;;;;;;;;23.20;99.90;;;;;;5057950;28;19908;-69
2022/08/05 13:17:57;;;;;;;;;;;23.40;99.90;;;;;;5075753;28;19920;-69
2022/08/05 13:20:31;;;;;;;;;;;23.50;99.90;;;;;;5041164;28;20302;-69
2022/08/05 13:22:57;;;;;;;;;;;23.40;99.90;;;;;;5075471;28;19915;-70
2022/08/05 13:25:22;;;;;;;;;;;23.50;99.90;;;;;;5057521;28;19912;-70
2022/08/05 13:27:49;;;;;;;;;;;22.90;99.90;;;;;;5040938;28;19909;-69
2022/08/05 13:30:15;;;;;;;;;;;22.70;99.90;;;;;;5075475;28;19908;-69
2022/08/05 13:32:41;;;;;;;;;;;22.50;99.90;;;;;;5057278;28;19920;-69
2022/08/05 13:35:08;;;;;;;;;;;22.60;99.90;;;;;;5075330;28;20044;-69
2022/08/05 13:37:34;;;;;;;;;;;22.60;99.90;;;;;;5075319;28;19940;-70
2022/08/05 13:40:07;;;;;;;;;;;22.70;99.90;;;;;;5075194;28;19995;-71
2022/08/05 13:42:33;;;;;;;;;;;22.90;99.90;;;;;;5075235;28;19915;-72
2022/08/05 13:44:59;;;;;;;;;;;22.80;99.90;;;;;;5075166;28;20394;-71
2022/08/05 13:47:24;;;;;;;;;;;22.90;99.90;;;;;;5075030;28;19999;-72
2022/08/05 13:49:50;;;;;;;;;;;23.40;99.90;;;;;;5075078;28;19908;-71
2022/08/05 13:52:20;;;;;;;;;;;23.70;99.90;;;;;;5040418;28;19924;-71
2022/08/05 13:54:45;;;;;;;;;;;23.70;99.90;;;;;;5074359;28;19922;-71
2022/08/05 13:57:11;;;;;;;;;;;23.40;99.90;;;;;;5056792;28;20028;-71
2022/08/05 13:59:38;;;;;;;;;;;23.50;99.90;;;;;;5057088;28;20381;-70
2022/08/05 14:02:04;;;;;;;;;;;23.40;99.90;;;;;;5056933;28;20445;-70
2022/08/05 14:07:18;;;;;;;;;;;23.50;99.90;;;;;;5074519;28;20003;-71
2022/08/05 14:09:44;;;;;;;;;;;23.10;99.90;;;;;;5074689;28;19909;-70
2022/08/05 14:12:09;;;;;;;;;;;22.90;99.90;;;;;;5074529;28;19919;-70
2022/08/05 14:14:35;;;;;;;;;;;22.60;99.90;;;;;;5074610;28;19912;-71
2022/08/05 14:17:00;;;;;;;;;;;22.20;99.90;;;;;;5074545;28;19915;-70
2022/08/05 14:19:26;;;;;;;;;;;22.00;99.90;;;;;;5056691;28;19913;-70
2022/08/05 14:21:51;;;;;;;;;;;21.80;99.90;;;;;;5056531;28;19995;-71
2022/08/05 14:24:16;;;;;;;;;;;21.70;99.90;;;;;;5056541;28;19908;-71
2022/08/05 14:26:42;;;;;;;;;;;21.70;99.90;;;;;;5056453;28;19915;-71
2022/08/05 14:29:08;;;;;;;;;;;21.70;99.90;;;;;;5056451;28;20279;-71